Duncan, OK

6:57 PM CDT on August 22, 2014 (GMT -0500)
Halliburton | Change Station
CLOSE
Current Station
Airport
Location: Duncan,
Elevation: 1112 ft
Nearby Weather Stations

Elev 1112 ft 34.48 °N, 97.96 °W | Updated 2 days ago

Clear
Clear
93 °F
Feels Like 93 °F
N
18
Wind Variable Wind from South
Gusts 25 mph

Today
High -- | Low -- °F
--% Chance of Precip.
Yesterday
High -- | Low -- °F
Precip. -- in
6:57 AM 8:11 PM
Waning Crescent, 6% visible
Pressure 29.89 in
Visibility -9999.0 miles
Clouds
Dew Point 59 °F
Humidity 31%
Rainfall 0.06 in
Snow Depth Not available.
UV Not available.
Pollen 9.40 out of 12
Air Quality Not available.
Flu Activity Not available.
METAR KDUC 201955Z AUTO 17017KT 36/16 A2989 RMK AO2 PWINO

More Conditions Fewer Conditions

Pressure 29.89 in
Visibility -9999.0 miles
Clouds
Dew Point 59 °F
Humidity 31%
Rainfall 0.06 in
Snow Depth Not available.
UV Not available.
Pollen 9.40 out of 12
Air Quality Not available.
Flu Activity Not available.
METAR KDUC 201955Z AUTO 17017KT 36/16 A2989 RMK AO2 PWINO

More Conditions Fewer Conditions

10-Day Weather Forecast

Almanac

Astronomy

Aug. 22, 2014 Rise Set
Actual Time 6:57 AM CDT 8:11 PM CDT
Civil Twilight 6:31 AM CDT 8:37 PM CDT
Nautical Twilight 6:00 AM CDT 9:08 PM CDT
Astronomical Twilight 5:27 AM CDT 9:40 PM CDT
Moon 4:24 AM CDT 6:18 PM CDT
Length of Visible Light 14h 05m
Length of Day
13h 13m
Tomorrow will be 1m 59s shorter.
Waning Crescent, 6% of the Moon is Illuminated
Today
Waning Crescent
Aug 25
New
Sep 2
First Quarter
Sep 8
Full
Sep 15
Last Quarter

Today's Extremes

State Highs State Lows

Community

WunderPhotos

Upload Photos

1,746,310 photos uploaded!

WunderBlogs® & News

By Dr. Jeff Masters
Director of Meteorology, Weather Underground
By Kari Strenfel
Meteorologist, Weather Underground
By Christopher C. Burt
Weather Historian, Weather Underground
August 22, 2014
August 22, 2014
August 22, 2014

Nearby

Snow Depth

Station Depth Elevation
No new snow has been reported.

Earthquake Activity

City Distance Mag. Time & Date
Boley, Oklahoma 102 miles 3.4 9:50 PM CDT
2014-08-17
Perry, Oklahoma 128 miles 3.0 8:43 AM CDT
2014-08-17
Minimum magnitude displayed is 2.5.

Coastal Water Temperatures

Place Temperature
No Stations Reporting

Nearby Weather Stations